Time;durP1;ratioP1;P1;durP2;ratioP2;P2;SDS_P1;SDS_P2;PMS_P1;PMS_P2;Temp;Humidity;BMP_temperature;BMP_pressure;BME280_temperature;BME280_humidity;BME280_pressure;Samples;Min_cycle;Max_cycle;Signal;HPM_P1;HPM_P2
2022/01/02 00:01:19;;;;;;;9.07;6.70;;;8.40;99.90;;;;;;5041208;28;20132;-73
2022/01/02 00:03:50;;;;;;;12.55;7.45;;;8.40;99.90;;;;;;5037759;28;20048;-73
2022/01/02 00:06:25;;;;;;;10.95;7.70;;;8.30;99.90;;;;;;5034928;28;20024;-73
2022/01/02 00:09:05;;;;;;;13.18;7.88;;;8.20;99.90;;;;;;5034224;28;20040;-73
2022/01/02 00:11:31;;;;;;;14.68;6.80;;;8.40;99.90;;;;;;5034504;28;20079;-73
2022/01/02 00:14:08;;;;;;;13.18;6.85;;;8.40;99.90;;;;;;5034382;28;20029;-73
2022/01/02 00:16:36;;;;;;;11.77;5.95;;;8.30;99.90;;;;;;5034660;28;20067;-73
2022/01/02 00:19:08;;;;;;;12.80;7.40;;;8.30;99.90;;;;;;5036031;28;20025;-71
2022/01/02 00:21:42;;;;;;;13.93;7.20;;;8.30;99.90;;;;;;5035775;28;20074;-73
2022/01/02 00:24:12;;;;;;;9.32;6.38;;;8.30;99.90;;;;;;5035924;28;20017;-72
2022/01/02 00:26:44;;;;;;;10.85;6.75;;;8.20;99.90;;;;;;5035228;28;20026;-72
2022/01/02 00:29:10;;;;;;;14.10;7.63;;;8.10;99.90;;;;;;5035787;28;20030;-72
2022/01/02 00:31:38;;;;;;;13.88;7.80;;;8.00;99.90;;;;;;5035880;28;20466;-72
2022/01/02 00:34:05;;;;;;;13.82;8.30;;;8.10;99.90;;;;;;5034490;28;20128;-72
2022/01/02 00:36:31;;;;;;;15.48;8.10;;;8.10;99.90;;;;;;5035897;28;20025;-72
2022/01/02 00:38:56;;;;;;;14.93;7.85;;;8.10;99.90;;;;;;5036145;28;20079;-72
2022/01/02 00:41:38;;;;;;;13.13;7.77;;;8.10;99.90;;;;;;5034105;28;20133;-73
2022/01/02 00:44:37;;;;;;;15.15;8.27;;;8.00;99.90;;;;;;5034526;28;20299;-72
2022/01/02 00:47:10;;;;;;;13.90;7.47;;;7.90;99.90;;;;;;5033835;28;20080;-72
2022/01/02 00:49:40;;;;;;;14.50;8.18;;;7.90;99.90;;;;;;5035368;28;20032;-72
2022/01/02 00:52:12;;;;;;;15.48;9.75;;;7.80;99.90;;;;;;5034739;28;20049;-73
2022/01/02 00:54:42;;;;;;;16.08;9.43;;;7.80;99.90;;;;;;5034246;28;20079;-72
2022/01/02 00:57:17;;;;;;;15.68;8.77;;;8.00;99.90;;;;;;5035808;28;20022;-73
2022/01/02 01:00:03;;;;;;;17.05;10.00;;;7.90;99.90;;;;;;5038082;28;20036;-73
2022/01/02 01:02:37;;;;;;;16.95;10.27;;;7.80;99.90;;;;;;5025015;28;20075;-73
2022/01/02 01:05:06;;;;;;;15.65;9.57;;;7.70;99.90;;;;;;5036989;28;20022;-73
2022/01/02 01:07:33;;;;;;;16.85;9.48;;;7.80;99.90;;;;;;5036787;28;20032;-74
2022/01/02 01:10:02;;;;;;;15.55;9.10;;;7.90;99.90;;;;;;5034600;28;20047;-74
2022/01/02 01:12:29;;;;;;;15.65;9.23;;;7.70;99.90;;;;;;5034443;28;20022;-73
2022/01/02 01:14:55;;;;;;;16.42;9.38;;;7.60;99.90;;;;;;5033701;28;20032;-73
2022/01/02 01:17:20;;;;;;;14.80;9.77;;;7.50;99.90;;;;;;5033415;28;20034;-72
2022/01/02 01:19:46;;;;;;;18.83;9.17;;;7.60;99.90;;;;;;5034686;28;20026;-72
2022/01/02 01:22:12;;;;;;;16.87;9.10;;;7.60;99.90;;;;;;5033448;28;20268;-72
2022/01/02 01:24:38;;;;;;;15.30;8.30;;;7.90;99.90;;;;;;5034597;28;20260;-73
2022/01/02 01:27:07;;;;;;;13.93;7.85;;;7.80;99.90;;;;;;5033232;28;20026;-73
2022/01/02 01:29:34;;;;;;;17.92;8.95;;;7.70;99.90;;;;;;5032922;28;20087;-72
2022/01/02 01:32:07;;;;;;;18.23;9.35;;;7.50;99.90;;;;;;5032786;28;20486;-73
2022/01/02 01:34:33;;;;;;;16.38;9.70;;;7.40;99.90;;;;;;5034506;28;20415;-73
2022/01/02 01:36:59;;;;;;;17.48;10.20;;;7.40;99.90;;;;;;5033214;28;20029;-73
2022/01/02 01:39:25;;;;;;;17.80;10.32;;;7.30;99.90;;;;;;5031966;28;20171;-73
2022/01/02 01:41:54;;;;;;;21.40;11.73;;;7.30;99.90;;;;;;5034993;28;20056;-73
2022/01/02 01:44:39;;;;;;;21.15;11.38;;;7.20;99.90;;;;;;5034523;28;20275;-72
2022/01/02 01:47:05;;;;;;;22.50;11.38;;;7.20;99.90;;;;;;5034272;28;20116;-73
2022/01/02 01:49:30;;;;;;;20.77;10.83;;;7.20;99.90;;;;;;5032958;28;20060;-72
2022/01/02 01:51:56;;;;;;;19.70;11.60;;;7.20;99.90;;;;;;5032504;28;20290;-73
2022/01/02 01:54:23;;;;;;;21.27;11.60;;;7.10;99.90;;;;;;5032748;28;20121;-72
2022/01/02 01:56:53;;;;;;;20.88;11.57;;;7.10;99.90;;;;;;5033880;28;20030;-72
2022/01/02 01:59:20;;;;;;;24.73;11.98;;;7.10;99.90;;;;;;5032137;28;20048;-72
2022/01/02 02:01:47;;;;;;;19.15;11.43;;;7.10;99.90;;;;;;5033558;28;20029;-72
2022/01/02 02:04:13;;;;;;;22.15;12.35;;;7.10;99.90;;;;;;5033709;28;20025;-72
2022/01/02 02:06:39;;;;;;;23.52;12.35;;;7.10;99.90;;;;;;5032356;28;20385;-72
2022/01/02 02:09:08;;;;;;;28.80;12.43;;;7.20;99.90;;;;;;5033406;28;20540;-72
2022/01/02 02:11:38;;;;;;;53.17;13.65;;;7.10;99.90;;;;;;5033920;28;20109;-72
2022/01/02 02:14:06;;;;;;;20.88;11.95;;;7.10;99.90;;;;;;5033854;28;20022;-72
2022/01/02 02:16:33;;;;;;;37.25;12.90;;;7.10;99.90;;;;;;5033786;28;20021;-72
2022/01/02 02:18:59;;;;;;;50.05;21.45;;;7.00;99.90;;;;;;5032179;28;20021;-72
2022/01/02 02:21:30;;;;;;;22.02;11.50;;;7.10;99.90;;;;;;5033700;28;20013;-73
2022/01/02 02:23:56;;;;;;;27.95;9.50;;;7.30;99.90;;;;;;5032272;28;20029;-71
2022/01/02 02:26:21;;;;;;;33.85;11.23;;;7.40;99.90;;;;;;5033885;28;20021;-71
2022/01/02 02:28:47;;;;;;;20.50;10.03;;;7.20;99.90;;;;;;5032119;28;20029;-72
2022/01/02 02:31:12;;;;;;;38.80;10.80;;;7.50;99.90;;;;;;5033666;28;20025;-74
2022/01/02 02:33:38;;;;;;;29.00;12.27;;;7.30;99.90;;;;;;5035140;28;20036;-72
2022/01/02 02:36:04;;;;;;;20.67;12.53;;;7.10;99.90;;;;;;5039605;28;20045;-72
2022/01/02 02:38:30;;;;;;;15.82;9.75;;;7.10;99.90;;;;;;5035109;28;20029;-71
2022/01/02 02:40:56;;;;;;;16.83;10.60;;;7.10;99.90;;;;;;5033404;28;20465;-72
2022/01/02 02:43:28;;;;;;;19.92;11.35;;;7.30;99.90;;;;;;5034883;28;20029;-72
2022/01/02 02:54:25;;;;;;;14.55;9.85;;;7.20;99.90;;;;;;5035258;28;20045;-72
2022/01/02 02:56:56;;;;;;;15.15;9.98;;;7.20;99.90;;;;;;5036887;28;20520;-72
2022/01/02 02:59:24;;;;;;;12.27;8.57;;;7.00;99.90;;;;;;5037074;28;20025;-73
2022/01/02 03:01:50;;;;;;;14.77;7.82;;;7.10;99.90;;;;;;5035650;28;20390;-73
2022/01/02 03:04:16;;;;;;;12.25;8.00;;;7.00;99.90;;;;;;5036914;28;20037;-73
2022/01/02 03:06:41;;;;;;;12.02;8.02;;;6.90;99.90;;;;;;5035735;28;20482;-73
2022/01/02 03:09:10;;;;;;;12.70;8.27;;;6.80;99.90;;;;;;5037085;28;20033;-71
2022/01/02 03:11:39;;;;;;;11.13;7.90;;;6.70;99.90;;;;;;5037129;28;20056;-69
2022/01/02 03:14:06;;;;;;;13.35;8.23;;;6.60;99.90;;;;;;5036709;28;20022;-70
2022/01/02 03:16:32;;;;;;;11.25;7.20;;;6.60;99.90;;;;;;5037334;28;20121;-70
2022/01/02 03:18:58;;;;;;;10.93;7.73;;;6.70;99.90;;;;;;5037210;28;20044;-70
2022/01/02 03:21:24;;;;;;;9.23;6.50;;;6.80;99.90;;;;;;5036540;28;20089;-70
2022/01/02 03:23:49;;;;;;;12.23;7.27;;;6.70;99.90;;;;;;5035306;28;20033;-70
2022/01/02 03:26:15;;;;;;;8.67;6.63;;;6.60;99.90;;;;;;5036699;28;20315;-70
2022/01/02 03:28:41;;;;;;;13.07;7.95;;;6.60;99.90;;;;;;5036340;28;20041;-69
2022/01/02 03:31:07;;;;;;;13.60;8.07;;;6.50;99.90;;;;;;5035763;28;20347;-69
2022/01/02 03:33:33;;;;;;;14.67;9.77;;;6.60;99.90;;;;;;5036773;28;20549;-71
2022/01/02 03:35:59;;;;;;;18.80;9.88;;;6.70;99.90;;;;;;5034826;28;20536;-70
2022/01/02 03:38:25;;;;;;;17.00;10.07;;;7.00;99.90;;;;;;5036174;28;20025;-70
2022/01/02 03:40:51;;;;;;;16.65;9.35;;;7.00;99.90;;;;;;5035912;28;20026;-70
2022/01/02 03:43:17;;;;;;;14.53;9.07;;;7.10;99.90;;;;;;5034726;28;20029;-70
2022/01/02 03:45:43;;;;;;;13.73;8.68;;;7.00;99.90;;;;;;5034552;28;20359;-70
2022/01/02 03:48:08;;;;;;;14.13;8.60;;;6.90;99.90;;;;;;5034629;28;20044;-70
2022/01/02 03:50:34;;;;;;;12.37;8.53;;;6.90;99.90;;;;;;5034414;28;20280;-70
2022/01/02 03:53:00;;;;;;;16.15;8.50;;;6.80;99.90;;;;;;5034678;28;20025;-70
2022/01/02 03:55:25;;;;;;;14.27;8.73;;;6.80;99.90;;;;;;5034558;28;20033;-70
2022/01/02 03:57:51;;;;;;;15.17;8.43;;;6.90;99.90;;;;;;5035314;28;20022;-70
2022/01/02 04:00:18;;;;;;;13.88;8.10;;;7.00;99.90;;;;;;5035623;28;20026;-70
2022/01/02 04:02:44;;;;;;;13.77;8.48;;;6.90;99.90;;;;;;5035444;28;20437;-70
2022/01/02 04:05:13;;;;;;;11.07;7.38;;;7.10;99.90;;;;;;5037054;28;20128;-70
2022/01/02 04:07:39;;;;;;;11.52;6.35;;;7.20;99.90;;;;;;5035685;28;20065;-70
2022/01/02 04:10:07;;;;;;;12.10;6.57;;;7.30;99.90;;;;;;5033940;28;20029;-70
2022/01/02 04:12:33;;;;;;;12.88;7.07;;;7.30;99.90;;;;;;5035473;28;20051;-70
2022/01/02 04:14:59;;;;;;;;;;;7.20;99.90;;;;;;5034446;28;20025;-70
2022/01/02 04:17:25;;;;;;;10.93;6.80;;;7.10;99.90;;;;;;5035534;28;19905;-70
2022/01/02 04:19:52;;;;;;;10.52;6.88;;;7.00;99.90;;;;;;5035480;28;20048;-71
2022/01/02 04:22:18;;;;;;;11.65;6.68;;;7.00;99.90;;;;;;5033960;28;20398;-71
2022/01/02 04:24:43;;;;;;;12.75;7.65;;;7.00;99.90;;;;;;5035320;28;20026;-70
2022/01/02 04:27:09;;;;;;;13.50;8.07;;;7.00;99.90;;;;;;5035052;28;20059;-70
2022/01/02 04:29:35;;;;;;;13.47;7.23;;;7.00;99.90;;;;;;5033917;28;20025;-70
2022/01/02 04:32:01;;;;;;;12.45;7.57;;;7.20;99.90;;;;;;5035321;28;20021;-70
2022/01/02 04:34:27;;;;;;;10.82;6.68;;;7.10;99.90;;;;;;5035316;28;20029;-70
2022/01/02 04:36:52;;;;;;;10.27;7.53;;;7.00;99.90;;;;;;5034966;28;20110;-71
2022/01/02 04:39:18;;;;;;;12.90;7.53;;;7.10;99.90;;;;;;5035129;28;20374;-70
2022/01/02 04:41:43;;;;;;;11.93;7.27;;;7.30;99.90;;;;;;5033577;28;20401;-71
2022/01/02 04:44:09;;;;;;;11.03;7.40;;;7.20;99.90;;;;;;5033775;28;20485;-71
2022/01/02 04:46:35;;;;;;;12.37;7.50;;;7.20;99.90;;;;;;5035243;28;20035;-70
2022/01/02 04:49:01;;;;;;;11.25;6.97;;;7.20;99.90;;;;;;5035098;28;20486;-70
2022/01/02 04:51:26;;;;;;;11.20;7.57;;;7.20;99.90;;;;;;5034856;28;20060;-70
2022/01/02 04:53:52;;;;;;;12.63;7.40;;;7.10;99.90;;;;;;5033357;28;20017;-70
2022/01/02 04:56:17;;;;;;;11.43;6.70;;;7.10;99.90;;;;;;5033451;28;20447;-70
2022/01/02 04:58:43;;;;;;;11.97;7.20;;;7.20;99.90;;;;;;5033316;28;20030;-71
2022/01/02 05:01:14;;;;;;;12.32;6.72;;;7.40;99.90;;;;;;5034609;28;20497;-70
2022/01/02 05:03:40;;;;;;;11.77;7.45;;;7.40;99.90;;;;;;5034376;28;20033;-70
2022/01/02 05:06:10;;;;;;;9.23;6.25;;;7.50;99.90;;;;;;5034544;28;20057;-70
2022/01/02 05:08:36;;;;;;;16.90;7.95;;;7.50;99.90;;;;;;5041832;28;20116;-71
2022/01/02 05:11:02;;;;;;;11.00;7.35;;;7.50;99.90;;;;;;5034223;28;20033;-71
2022/01/02 05:13:28;;;;;;;25.02;12.07;;;7.40;99.90;;;;;;5034601;28;20036;-71
2022/01/02 05:15:54;;;;;;;15.07;8.23;;;7.30;99.90;;;;;;5033322;28;20017;-71
2022/01/02 05:18:19;;;;;;;67.43;28.80;;;7.30;99.90;;;;;;5032996;28;20037;-70
2022/01/02 05:20:46;;;;;;;41.22;19.73;;;7.20;99.90;;;;;;5034051;28;20383;-71
2022/01/02 05:23:19;;;;;;;15.32;8.93;;;7.20;99.90;;;;;;5033329;28;20482;-71
2022/01/02 05:25:45;;;;;;;18.08;9.55;;;7.10;99.90;;;;;;5034426;28;20426;-71
2022/01/02 05:28:11;;;;;;;43.78;22.65;;;7.00;99.90;;;;;;5035466;28;20545;-71
2022/01/02 05:30:38;;;;;;;10.82;6.15;;;7.00;99.90;;;;;;5034119;28;20048;-71
2022/01/02 05:33:04;;;;;;;26.98;17.77;;;7.00;99.90;;;;;;5034262;28;20022;-71
2022/01/02 05:35:31;;;;;;;9.98;7.40;;;6.90;99.90;;;;;;5034190;28;20394;-71
2022/01/02 05:37:57;;;;;;;;;;;6.90;99.90;;;;;;5034400;28;20051;-71
2022/01/02 05:40:23;;;;;;;13.82;7.90;;;6.90;99.90;;;;;;5034673;28;19912;-71
2022/01/02 05:42:49;;;;;;;10.20;6.43;;;6.90;99.90;;;;;;5033793;28;20095;-71
2022/01/02 05:45:14;;;;;;;10.40;5.80;;;6.90;99.90;;;;;;5034095;28;20104;-71
2022/01/02 05:47:40;;;;;;;12.53;5.60;;;6.90;99.90;;;;;;5034020;28;20030;-71
2022/01/02 05:50:07;;;;;;;7.53;6.00;;;6.90;99.90;;;;;;5034321;28;20033;-71
2022/01/02 05:52:33;;;;;;;8.90;5.60;;;7.20;99.90;;;;;;5033004;28;20390;-71
2022/01/02 05:54:58;;;;;;;8.88;5.47;;;7.30;99.90;;;;;;5033734;28;20025;-71
2022/01/02 05:57:24;;;;;;;9.17;5.57;;;7.30;99.90;;;;;;5033539;28;20022;-71
2022/01/02 05:59:50;;;;;;;9.80;6.30;;;7.20;99.90;;;;;;5032082;28;20030;-71
2022/01/02 06:02:16;;;;;;;8.75;5.90;;;7.20;99.90;;;;;;5033545;28;20040;-71
2022/01/02 06:04:41;;;;;;;7.43;5.27;;;7.10;99.90;;;;;;5033651;28;20033;-69
2022/01/02 06:07:08;;;;;;;8.20;5.13;;;7.10;99.90;;;;;;5033316;28;20314;-69
2022/01/02 06:09:34;;;;;;;;;;;7.00;99.90;;;;;;5032471;28;20037;-69
2022/01/02 06:11:59;;;;;;;8.88;5.35;;;7.00;99.90;;;;;;5033434;28;20296;-70
2022/01/02 06:14:25;;;;;;;7.87;5.23;;;7.30;99.90;;;;;;5033305;28;20025;-69
2022/01/02 06:16:50;;;;;;;9.87;5.33;;;7.10;99.90;;;;;;5032028;28;20032;-70
2022/01/02 06:19:16;;;;;;;9.43;5.47;;;7.00;99.90;;;;;;5033079;28;20021;-70
2022/01/02 06:21:42;;;;;;;8.23;5.50;;;7.00;99.90;;;;;;5033124;28;20029;-70
2022/01/02 06:24:07;;;;;;;7.73;5.57;;;6.90;99.90;;;;;;5033041;28;20029;-70
2022/01/02 06:26:33;;;;;;;8.97;4.83;;;7.00;99.90;;;;;;5032616;28;20025;-70
2022/01/02 06:29:03;;;;;;;9.97;5.80;;;7.00;99.90;;;;;;5031803;28;20022;-70
2022/01/02 06:31:29;;;;;;;9.02;5.43;;;7.00;99.90;;;;;;5033015;28;20044;-69
2022/01/02 06:33:55;;;;;;;;;;;6.90;99.90;;;;;;5033447;28;20026;-69
2022/01/02 06:36:21;;;;;;;10.25;5.72;;;6.90;99.90;;;;;;5031638;28;19912;-69
2022/01/02 06:38:46;;;;;;;7.77;5.17;;;6.80;99.90;;;;;;5032992;28;20068;-69
2022/01/02 06:41:12;;;;;;;9.90;4.87;;;6.80;99.90;;;;;;5031643;28;20028;-69
2022/01/02 06:43:39;;;;;;;7.45;4.90;;;6.80;99.90;;;;;;5033066;28;20017;-69
2022/01/02 06:46:05;;;;;;;8.73;5.28;;;6.80;99.90;;;;;;5031820;28;20032;-69
2022/01/02 06:48:31;;;;;;;;;;;7.00;99.90;;;;;;5033250;28;20104;-69
2022/01/02 06:50:57;;;;;;;8.02;4.50;;;7.10;99.90;;;;;;5031519;28;19913;-69
2022/01/02 06:53:22;;;;;;;7.73;4.57;;;7.00;99.90;;;;;;5031551;28;20088;-69
2022/01/02 06:55:48;;;;;;;11.00;5.00;;;7.00;99.90;;;;;;5033019;28;20048;-69
2022/01/02 06:58:14;;;;;;;7.72;4.78;;;7.00;99.90;;;;;;5033131;28;20402;-69
2022/01/02 07:00:41;;;;;;;8.50;4.60;;;7.00;99.90;;;;;;5032877;28;20032;-69
2022/01/02 07:03:06;;;;;;;10.07;5.55;;;6.90;99.90;;;;;;5032892;28;20029;-69
2022/01/02 07:05:32;;;;;;;7.00;4.53;;;6.90;99.90;;;;;;5032810;28;20033;-69
2022/01/02 07:07:58;;;;;;;8.07;4.53;;;6.80;99.90;;;;;;5032784;28;20029;-69
2022/01/02 07:10:23;;;;;;;8.27;4.80;;;6.80;99.90;;;;;;5033125;28;20092;-69
2022/01/02 07:12:49;;;;;;;7.57;4.70;;;6.70;99.90;;;;;;5031372;28;20501;-69
2022/01/02 07:15:15;;;;;;;12.35;5.55;;;6.70;99.90;;;;;;5031498;28;20032;-69
2022/01/02 07:17:41;;;;;;;8.68;5.20;;;6.70;99.90;;;;;;5031691;28;20359;-69
2022/01/02 07:20:08;;;;;;;8.70;5.05;;;6.80;99.90;;;;;;5031309;28;20105;-69
2022/01/02 07:22:34;;;;;;;8.95;5.47;;;7.00;99.90;;;;;;5031417;28;20041;-69
2022/01/02 07:25:00;;;;;;;9.55;5.00;;;7.00;99.90;;;;;;5032503;28;20022;-69
2022/01/02 07:27:26;;;;;;;8.02;4.80;;;7.00;99.90;;;;;;5032438;28;20382;-69
2022/01/02 07:29:51;;;;;;;8.23;5.80;;;7.10;99.90;;;;;;5031034;28;20033;-69
2022/01/02 07:32:18;;;;;;;9.27;5.50;;;7.00;99.90;;;;;;5032401;28;20083;-69
2022/01/02 07:34:43;;;;;;;14.00;6.53;;;7.20;99.90;;;;;;5032417;28;20099;-69
2022/01/02 07:37:10;;;;;;;10.55;5.88;;;7.10;99.90;;;;;;5034851;28;20033;-69
2022/01/02 07:39:35;;;;;;;9.02;6.00;;;7.20;99.90;;;;;;5036250;28;20039;-68
2022/01/02 07:42:01;;;;;;;9.50;5.60;;;7.20;99.90;;;;;;5037148;28;20038;-69
2022/01/02 07:44:27;;;;;;;9.82;6.35;;;7.10;99.90;;;;;;5036622;28;20083;-69
2022/01/02 07:46:53;;;;;;;12.33;6.17;;;7.00;99.90;;;;;;5035994;28;20029;-69
2022/01/02 07:49:18;;;;;;;9.90;6.03;;;6.90;99.90;;;;;;5035810;28;20029;-68
2022/01/02 07:51:44;;;;;;;12.13;6.60;;;6.90;99.90;;;;;;5035843;28;20416;-69
2022/01/02 07:54:12;;;;;;;9.67;6.03;;;7.00;99.90;;;;;;5036531;28;20033;-69
2022/01/02 07:56:38;;;;;;;9.38;6.00;;;7.00;99.90;;;;;;5037186;28;20378;-69
2022/01/02 07:59:03;;;;;;;11.32;6.25;;;6.90;99.90;;;;;;5036071;28;20033;-69
2022/01/02 08:01:29;;;;;;;9.60;6.07;;;7.00;99.90;;;;;;5041065;28;20037;-69
2022/01/02 08:03:55;;;;;;;10.97;6.70;;;6.90;99.90;;;;;;5042248;28;20032;-69
2022/01/02 08:06:20;;;;;;;12.47;6.57;;;6.80;99.90;;;;;;5041383;28;20075;-69
2022/01/02 08:08:46;;;;;;;9.90;6.73;;;6.90;99.90;;;;;;5035439;28;20044;-69
2022/01/02 08:11:15;;;;;;;10.57;6.13;;;7.00;99.90;;;;;;5036298;28;20133;-69
2022/01/02 08:13:41;;;;;;;10.55;6.22;;;7.10;99.90;;;;;;5034212;28;20128;-69
2022/01/02 08:16:07;;;;;;;11.70;6.38;;;7.10;99.90;;;;;;5034169;28;20021;-69
2022/01/02 08:18:32;;;;;;;11.53;6.33;;;7.10;99.90;;;;;;5034065;28;20556;-69
2022/01/02 08:20:58;;;;;;;12.57;5.97;;;7.00;99.90;;;;;;5035406;28;20029;-69
2022/01/02 08:23:24;;;;;;;10.07;6.15;;;7.00;99.90;;;;;;5033959;28;20045;-69
2022/01/02 08:25:50;;;;;;;12.70;6.87;;;7.00;99.90;;;;;;5035461;28;20029;-68
2022/01/02 08:28:16;;;;;;;11.37;7.50;;;7.00;99.90;;;;;;5035403;28;20211;-68
2022/01/02 08:30:43;;;;;;;12.02;6.55;;;7.10;99.90;;;;;;5035007;28;20037;-68
2022/01/02 08:33:10;;;;;;;10.88;6.82;;;7.10;99.90;;;;;;5034974;28;20029;-68
2022/01/02 08:35:39;;;;;;;11.23;6.85;;;7.10;99.90;;;;;;5035559;28;20014;-68
2022/01/02 08:38:05;;;;;;;13.13;7.57;;;7.10;99.90;;;;;;5035211;28;20419;-68
2022/01/02 08:40:31;;;;;;;11.53;7.10;;;7.10;99.90;;;;;;5034974;28;20037;-69
2022/01/02 08:42:56;;;;;;;16.38;8.38;;;7.20;99.90;;;;;;5035132;28;20052;-68
2022/01/02 08:45:23;;;;;;;18.00;8.53;;;7.20;99.90;;;;;;5036580;28;20041;-71
2022/01/02 08:47:49;;;;;;;14.45;9.07;;;7.10;99.90;;;;;;5034526;28;20447;-71
2022/01/02 08:50:14;;;;;;;15.60;9.43;;;7.10;99.90;;;;;;5047445;28;20105;-71
2022/01/02 08:52:40;;;;;;;18.77;10.20;;;7.10;99.90;;;;;;5042153;28;20117;-72
2022/01/02 08:55:06;;;;;;;21.27;10.65;;;7.20;99.90;;;;;;5035906;28;20025;-70
2022/01/02 08:57:32;;;;;;;16.88;9.45;;;7.30;99.90;;;;;;5033760;28;20439;-71
2022/01/02 08:59:58;;;;;;;19.50;10.40;;;7.30;99.90;;;;;;5035178;28;20057;-70
2022/01/02 09:02:23;;;;;;;16.63;9.93;;;7.50;99.90;;;;;;5034634;28;20394;-70
2022/01/02 09:04:49;;;;;;;17.90;10.47;;;7.60;99.90;;;;;;5034968;28;20053;-70
2022/01/02 09:07:15;;;;;;;16.93;10.67;;;7.60;99.90;;;;;;5034947;28;20028;-70
2022/01/02 09:09:40;;;;;;;16.53;9.57;;;7.60;99.90;;;;;;5034344;28;20497;-70
2022/01/02 09:12:07;;;;;;;15.13;9.53;;;7.60;99.90;;;;;;5033022;28;20030;-70
2022/01/02 09:14:33;;;;;;;14.68;9.38;;;7.80;99.90;;;;;;5035106;28;20052;-71
2022/01/02 09:16:59;;;;;;;17.48;10.88;;;7.90;99.90;;;;;;5034259;28;20041;-72
2022/01/02 09:19:25;;;;;;;18.30;10.40;;;8.00;99.90;;;;;;5034628;28;20036;-71
2022/01/02 09:21:50;;;;;;;16.45;9.95;;;8.00;99.90;;;;;;5032972;28;20124;-71
2022/01/02 09:24:16;;;;;;;24.37;10.77;;;8.00;99.90;;;;;;5032944;28;20030;-73
2022/01/02 09:26:42;;;;;;;15.33;9.50;;;8.00;99.90;;;;;;5034256;28;20025;-73
2022/01/02 09:29:07;;;;;;;17.13;10.37;;;7.90;99.90;;;;;;5034816;28;20048;-72
2022/01/02 09:31:33;;;;;;;16.30;9.40;;;7.90;99.90;;;;;;5034780;28;20036;-73
2022/01/02 09:33:59;;;;;;;15.13;8.88;;;8.10;99.90;;;;;;5034652;28;20281;-72
2022/01/02 09:36:25;;;;;;;18.83;9.00;;;8.00;99.90;;;;;;5033668;28;20036;-72
2022/01/02 09:38:51;;;;;;;15.63;9.50;;;8.10;99.90;;;;;;5033398;28;20052;-73
2022/01/02 09:41:19;;;;;;;15.85;9.43;;;8.10;99.90;;;;;;5033526;28;20075;-73
2022/01/02 09:43:47;;;;;;;15.95;9.73;;;8.20;99.90;;;;;;5035054;28;20584;-72
2022/01/02 09:46:26;;;;;;;15.45;9.05;;;8.20;99.90;;;;;;5033280;28;20033;-71
2022/01/02 09:48:53;;;;;;;15.45;9.20;;;8.20;99.90;;;;;;5034477;28;20029;-72
2022/01/02 09:51:24;;;;;;;15.80;10.05;;;8.00;99.90;;;;;;5032658;28;20026;-72
2022/01/02 09:53:51;;;;;;;22.40;12.02;;;7.90;99.90;;;;;;5033102;28;20489;-71
2022/01/02 09:56:17;;;;;;;18.33;10.10;;;7.90;99.90;;;;;;5032766;28;20022;-71
2022/01/02 09:58:44;;;;;;;20.30;10.88;;;7.90;99.90;;;;;;5034228;28;20537;-71
2022/01/02 10:01:20;;;;;;;17.60;9.90;;;8.10;99.90;;;;;;5032294;28;20056;-72
2022/01/02 10:03:50;;;;;;;15.38;9.00;;;8.00;99.90;;;;;;5034317;28;20040;-73
2022/01/02 10:06:17;;;;;;;15.82;9.52;;;8.10;99.90;;;;;;5034428;28;20482;-72
2022/01/02 10:08:44;;;;;;;15.30;8.77;;;8.10;99.90;;;;;;5032859;28;20041;-73
2022/01/02 10:11:25;;;;;;;15.30;7.80;;;8.10;99.90;;;;;;5037364;28;20095;-77
2022/01/02 10:13:56;;;;;;;18.45;9.65;;;8.10;99.90;;;;;;5038922;28;20509;-77
2022/01/02 10:16:29;;;;;;;13.88;8.65;;;8.10;99.90;;;;;;5034118;28;20048;-74
2022/01/02 10:18:56;;;;;;;21.23;12.52;;;8.00;99.90;;;;;;5033345;28;20032;-75
2022/01/02 10:21:27;;;;;;;;;;;8.00;99.90;;;;;;5032577;28;20025;-76
2022/01/02 10:24:13;;;;;;;12.80;7.75;;;8.10;99.90;;;;;;5034576;28;19999;-74
2022/01/02 10:26:41;;;;;;;13.88;8.25;;;8.10;99.90;;;;;;5044542;28;20025;-74
2022/01/02 10:29:13;;;;;;;13.35;7.57;;;8.30;99.90;;;;;;5035948;28;20565;-72
2022/01/02 10:31:40;;;;;;;15.07;7.93;;;8.30;99.90;;;;;;5033447;28;20021;-67
2022/01/02 10:34:07;;;;;;;15.10;8.40;;;8.40;99.90;;;;;;5033570;28;20044;-67
2022/01/02 10:36:42;;;;;;;15.27;7.88;;;8.40;99.90;;;;;;5033625;28;20378;-67
2022/01/02 10:39:09;;;;;;;15.80;8.82;;;8.40;99.90;;;;;;5032277;28;20018;-67
2022/01/02 10:41:38;;;;;;;13.15;8.40;;;8.30;99.90;;;;;;5033234;28;20082;-67
2022/01/02 10:44:16;;;;;;;15.95;7.95;;;8.30;99.90;;;;;;5033133;28;20028;-67
2022/01/02 10:47:08;;;;;;;18.27;10.18;;;8.30;99.90;;;;;;5033151;28;20036;-67
2022/01/02 10:49:53;;;;;;;16.63;8.57;;;8.30;99.90;;;;;;5033354;28;20103;-67
2022/01/02 10:52:25;;;;;;;14.88;8.80;;;8.40;99.90;;;;;;5033063;28;20022;-67
2022/01/02 10:54:52;;;;;;;14.43;8.25;;;8.70;99.90;;;;;;5032863;28;20026;-67
2022/01/02 10:57:18;;;;;;;13.95;8.25;;;9.20;99.90;;;;;;5032587;28;20451;-68
2022/01/02 10:59:45;;;;;;;17.88;9.65;;;9.40;99.90;;;;;;5032522;28;20033;-68
2022/01/02 11:02:12;;;;;;;12.32;7.55;;;9.50;99.90;;;;;;5031334;28;20048;-67
2022/01/02 11:04:55;;;;;;;16.00;8.85;;;9.60;99.90;;;;;;5032838;28;20030;-68
2022/01/02 11:07:23;;;;;;;15.57;8.63;;;9.70;99.90;;;;;;5032150;28;20462;-68
2022/01/02 11:09:52;;;;;;;11.55;7.53;;;9.80;99.90;;;;;;5040743;28;20025;-67
2022/01/02 11:12:18;;;;;;;14.23;7.50;;;9.80;99.90;;;;;;5042391;28;20025;-67
2022/01/02 11:14:44;;;;;;;10.93;6.72;;;9.80;99.90;;;;;;5038506;28;20018;-69
2022/01/02 11:17:12;;;;;;;9.38;6.55;;;9.70;99.90;;;;;;5039634;28;20445;-69
2022/01/02 11:19:38;;;;;;;12.50;8.10;;;9.70;99.90;;;;;;5035721;28;20022;-68
2022/01/02 11:22:05;;;;;;;10.00;7.00;;;9.60;99.90;;;;;;5035702;28;20030;-68
2022/01/02 11:24:38;;;;;;;14.27;8.35;;;9.50;99.90;;;;;;5036562;28;20032;-68
2022/01/02 11:27:23;;;;;;;11.70;6.85;;;9.50;99.90;;;;;;5036441;28;20025;-68
2022/01/02 11:29:49;;;;;;;13.65;6.85;;;9.60;99.90;;;;;;5036440;28;20094;-68
2022/01/02 11:32:22;;;;;;;;;;;9.60;99.90;;;;;;5036742;28;20075;-68
2022/01/02 11:34:48;;;;;;;12.57;7.40;;;9.70;99.90;;;;;;5036264;28;20390;-73
2022/01/02 11:37:24;;;;;;;12.15;7.40;;;9.80;99.90;;;;;;5035487;28;20025;-73
2022/01/02 11:39:56;;;;;;;10.98;5.35;;;9.80;99.90;;;;;;5036856;28;20034;-71
2022/01/02 11:42:42;;;;;;;9.75;5.72;;;10.00;99.90;;;;;;5035333;28;20029;-73
2022/01/02 11:45:30;;;;;;;9.15;5.50;;;10.10;99.90;;;;;;5037354;28;20093;-68
2022/01/02 11:47:56;;;;;;;9.63;5.53;;;10.10;99.90;;;;;;5033872;28;20034;-68
2022/01/02 11:50:31;;;;;;;7.55;5.28;;;10.10;99.90;;;;;;5036328;28;20029;-74
2022/01/02 11:53:25;;;;;;;9.43;5.07;;;10.20;99.90;;;;;;5035034;28;20022;-73
2022/01/02 11:55:53;;;;;;;9.15;5.00;;;10.30;99.90;;;;;;5036520;28;20020;-75
2022/01/02 11:58:46;;;;;;;7.80;5.10;;;10.50;99.90;;;;;;5039813;28;20056;-72
2022/01/02 12:01:48;;;;;;;8.82;5.10;;;10.70;99.90;;;;;;5042624;28;20374;-71
2022/01/02 12:04:15;;;;;;;7.03;3.95;;;10.80;99.90;;;;;;5036373;28;20482;-71
2022/01/02 12:06:42;;;;;;;6.25;3.78;;;10.80;99.90;;;;;;5034778;28;20044;-70
2022/01/02 12:09:32;;;;;;;5.18;3.28;;;10.90;99.90;;;;;;5034664;28;20081;-70
2022/01/02 12:12:03;;;;;;;5.03;3.33;;;11.00;99.90;;;;;;5035872;28;20032;-70
2022/01/02 12:14:32;;;;;;;4.68;3.22;;;11.20;99.90;;;;;;5034656;28;20525;-71
2022/01/02 12:17:09;;;;;;;6.50;3.45;;;11.30;99.90;;;;;;5036109;28;20032;-71
2022/01/02 12:19:53;;;;;;;;;;;11.40;99.90;;;;;;5037341;28;20117;-71
2022/01/02 12:22:19;;;;;;;4.72;2.58;;;11.60;99.90;;;;;;5037134;28;19909;-71
2022/01/02 12:24:46;;;;;;;4.10;2.50;;;11.70;99.90;;;;;;5037217;28;20053;-71
2022/01/02 12:27:16;;;;;;;3.33;2.20;;;11.80;99.90;;;;;;5034829;28;20272;-71
2022/01/02 12:29:42;;;;;;;4.32;2.30;;;11.90;99.90;;;;;;5037200;28;20028;-71
2022/01/02 12:32:10;;;;;;;4.45;3.00;;;12.00;99.90;;;;;;5036268;28;20025;-71
2022/01/02 12:34:36;;;;;;;3.47;1.92;;;12.00;99.90;;;;;;5034787;28;20028;-70
2022/01/02 12:37:03;;;;;;;4.15;2.20;;;12.10;99.90;;;;;;5037711;28;20075;-71
2022/01/02 12:39:34;;;;;;;4.63;2.50;;;12.20;99.90;;;;;;5033869;28;20028;-71
2022/01/02 12:42:13;;;;;;;4.10;2.22;;;12.20;99.90;;;;;;5035387;28;20029;-71
2022/01/02 12:44:39;;;;;;;4.05;2.08;;;12.30;99.90;;;;;;5035457;28;20025;-73
2022/01/02 12:47:10;;;;;;;4.45;2.28;;;12.40;99.90;;;;;;5034090;28;20021;-74
2022/01/02 12:49:43;;;;;;;3.15;2.08;;;12.50;99.90;;;;;;5034654;28;20506;-73
2022/01/02 12:52:12;;;;;;;4.85;2.13;;;12.60;99.90;;;;;;5036323;28;20056;-74
2022/01/02 12:54:40;;;;;;;5.85;2.00;;;12.60;99.90;;;;;;5036429;28;20026;-74
2022/01/02 12:57:08;;;;;;;4.13;2.30;;;12.70;99.90;;;;;;5036909;28;20097;-73
2022/01/02 12:59:54;;;;;;;2.83;1.80;;;12.70;99.90;;;;;;5035533;28;20021;-73
2022/01/02 13:02:25;;;;;;;3.97;2.20;;;12.60;99.90;;;;;;5035472;28;20602;-74